sensor_id;sensor_type;location;lat;lon;timestamp;pressure;altitude;pressure_sealevel;temperature;humidity
72959;BME280;60008;50.826;6.896;2023-05-24T00:02:11;101713.53;;;9.76;100.00
72959;BME280;60008;50.826;6.896;2023-05-24T00:04:57;101707.16;;;9.78;100.00
72959;BME280;60008;50.826;6.896;2023-05-24T00:07:50;101714.44;;;9.86;100.00
72959;BME280;60008;50.826;6.896;2023-05-24T00:10:36;101716.28;;;9.65;100.00
72959;BME280;60008;50.826;6.896;2023-05-24T00:13:27;101710.00;;;9.66;100.00
72959;BME280;60008;50.826;6.896;2023-05-24T00:16:12;101720.47;;;9.67;100.00
72959;BME280;60008;50.826;6.896;2023-05-24T00:19:04;101721.88;;;9.71;100.00
72959;BME280;60008;50.826;6.896;2023-05-24T00:21:55;101722.31;;;9.76;100.00
72959;BME280;60008;50.826;6.896;2023-05-24T00:24:47;101724.28;;;9.74;100.00
72959;BME280;60008;50.826;6.896;2023-05-24T00:27:39;101722.06;;;9.79;100.00
72959;BME280;60008;50.826;6.896;2023-05-24T00:30:24;101728.91;;;9.82;100.00
72959;BME280;60008;50.826;6.896;2023-05-24T00:33:15;101726.22;;;9.72;100.00
72959;BME280;60008;50.826;6.896;2023-05-24T00:36:07;101732.41;;;9.41;100.00
72959;BME280;60008;50.826;6.896;2023-05-24T00:39:00;101731.97;;;9.56;100.00
72959;BME280;60008;50.826;6.896;2023-05-24T00:41:45;101726.91;;;9.33;100.00
72959;BME280;60008;50.826;6.896;2023-05-24T00:44:36;101727.97;;;9.41;100.00
72959;BME280;60008;50.826;6.896;2023-05-24T00:47:21;101730.88;;;9.59;100.00
72959;BME280;60008;50.826;6.896;2023-05-24T00:50:12;101732.81;;;9.36;100.00
72959;BME280;60008;50.826;6.896;2023-05-24T00:53:01;101727.63;;;9.35;100.00
72959;BME280;60008;50.826;6.896;2023-05-24T00:55:53;101734.59;;;9.36;100.00
72959;BME280;60008;50.826;6.896;2023-05-24T00:58:45;101726.06;;;9.32;100.00
72959;BME280;60008;50.826;6.896;2023-05-24T01:01:37;101728.63;;;9.34;100.00
72959;BME280;60008;50.826;6.896;2023-05-24T01:04:21;101726.81;;;9.34;100.00
72959;BME280;60008;50.826;6.896;2023-05-24T01:07:45;101736.50;;;9.13;100.00
72959;BME280;60008;50.826;6.896;2023-05-24T01:10:45;101729.56;;;9.12;100.00
72959;BME280;60008;50.826;6.896;2023-05-24T01:13:51;101731.69;;;9.18;100.00
72959;BME280;60008;50.826;6.896;2023-05-24T01:16:52;101737.19;;;8.94;100.00
72959;BME280;60008;50.826;6.896;2023-05-24T01:20:10;101730.03;;;8.85;100.00
72959;BME280;60008;50.826;6.896;2023-05-24T01:26:28;101740.28;;;8.99;100.00
72959;BME280;60008;50.826;6.896;2023-05-24T01:29:22;101737.84;;;8.76;100.00
72959;BME280;60008;50.826;6.896;2023-05-24T01:32:07;101734.25;;;9.09;100.00
72959;BME280;60008;50.826;6.896;2023-05-24T01:34:59;101732.25;;;9.01;100.00
72959;BME280;60008;50.826;6.896;2023-05-24T01:37:44;101728.72;;;8.80;100.00
72959;BME280;60008;50.826;6.896;2023-05-24T01:40:37;101726.56;;;8.74;100.00
72959;BME280;60008;50.826;6.896;2023-05-24T01:46:32;101725.06;;;8.38;100.00
72959;BME280;60008;50.826;6.896;2023-05-24T01:49:22;101731.91;;;8.41;100.00
72959;BME280;60008;50.826;6.896;2023-05-24T01:52:21;101723.66;;;8.45;100.00
72959;BME280;60008;50.826;6.896;2023-05-24T01:55:07;101719.19;;;8.34;100.00
72959;BME280;60008;50.826;6.896;2023-05-24T01:58:01;101725.91;;;8.38;100.00
72959;BME280;60008;50.826;6.896;2023-05-24T02:00:46;101727.47;;;8.41;100.00
72959;BME280;60008;50.826;6.896;2023-05-24T02:03:39;101727.59;;;8.17;100.00
72959;BME280;60008;50.826;6.896;2023-05-24T02:06:30;101723.50;;;8.13;100.00
72959;BME280;60008;50.826;6.896;2023-05-24T02:09:21;101723.63;;;8.01;100.00
72959;BME280;60008;50.826;6.896;2023-05-24T02:12:12;101726.75;;;8.06;100.00
72959;BME280;60008;50.826;6.896;2023-05-24T02:14:57;101727.13;;;8.12;100.00
72959;BME280;60008;50.826;6.896;2023-05-24T02:17:48;101722.19;;;7.97;100.00
72959;BME280;60008;50.826;6.896;2023-05-24T02:20:47;101726.03;;;7.82;100.00
72959;BME280;60008;50.826;6.896;2023-05-24T02:23:32;101719.06;;;7.80;100.00
72959;BME280;60008;50.826;6.896;2023-05-24T02:26:23;101719.91;;;7.81;100.00
72959;BME280;60008;50.826;6.896;2023-05-24T02:29:15;101716.44;;;7.92;100.00
72959;BME280;60008;50.826;6.896;2023-05-24T02:32:00;101714.63;;;7.92;100.00
72959;BME280;60008;50.826;6.896;2023-05-24T02:34:52;101714.75;;;7.91;100.00
72959;BME280;60008;50.826;6.896;2023-05-24T02:37:37;101714.16;;;7.87;100.00
72959;BME280;60008;50.826;6.896;2023-05-24T02:40:28;101722.78;;;7.89;100.00
72959;BME280;60008;50.826;6.896;2023-05-24T02:43:19;101710.06;;;7.83;100.00
72959;BME280;60008;50.826;6.896;2023-05-24T02:46:11;101724.94;;;7.73;100.00
72959;BME280;60008;50.826;6.896;2023-05-24T02:49:03;101729.50;;;7.71;100.00
72959;BME280;60008;50.826;6.896;2023-05-24T02:51:48;101724.56;;;7.77;100.00
72959;BME280;60008;50.826;6.896;2023-05-24T02:54:40;101732.47;;;7.66;100.00
72959;BME280;60008;50.826;6.896;2023-05-24T02:57:25;101728.41;;;7.62;100.00
72959;BME280;60008;50.826;6.896;2023-05-24T03:00:19;101730.66;;;7.56;100.00
72959;BME280;60008;50.826;6.896;2023-05-24T03:03:10;101733.06;;;7.59;100.00
72959;BME280;60008;50.826;6.896;2023-05-24T03:05:55;101735.22;;;7.65;100.00
72959;BME280;60008;50.826;6.896;2023-05-24T03:08:47;101724.91;;;7.62;100.00
72959;BME280;60008;50.826;6.896;2023-05-24T03:11:33;101723.84;;;7.64;100.00
72959;BME280;60008;50.826;6.896;2023-05-24T03:14:25;101723.72;;;7.66;100.00
72959;BME280;60008;50.826;6.896;2023-05-24T03:17:10;101727.44;;;7.63;100.00
72959;BME280;60008;50.826;6.896;2023-05-24T03:20:07;101723.59;;;7.56;100.00
72959;BME280;60008;50.826;6.896;2023-05-24T03:22:59;101718.66;;;7.52;100.00
72959;BME280;60008;50.826;6.896;2023-05-24T03:25:44;101720.59;;;7.50;100.00
72959;BME280;60008;50.826;6.896;2023-05-24T03:28:36;101717.34;;;7.46;100.00
72959;BME280;60008;50.826;6.896;2023-05-24T03:31:21;101717.34;;;7.46;100.00
72959;BME280;60008;50.826;6.896;2023-05-24T03:34:14;101720.59;;;7.50;100.00
72959;BME280;60008;50.826;6.896;2023-05-24T03:36:59;101725.28;;;7.57;100.00
72959;BME280;60008;50.826;6.896;2023-05-24T03:39:51;101720.84;;;7.58;100.00
72959;BME280;60008;50.826;6.896;2023-05-24T03:42:36;101726.66;;;7.39;100.00
72959;BME280;60008;50.826;6.896;2023-05-24T03:45:27;101727.97;;;7.34;100.00
72959;BME280;60008;50.826;6.896;2023-05-24T03:48:23;101728.56;;;7.37;100.00
72959;BME280;60008;50.826;6.896;2023-05-24T03:51:15;101730.22;;;7.27;100.00
72959;BME280;60008;50.826;6.896;2023-05-24T03:54:00;101732.69;;;7.17;100.00
72959;BME280;60008;50.826;6.896;2023-05-24T03:56:52;101739.47;;;7.33;100.00
72959;BME280;60008;50.826;6.896;2023-05-24T03:59:37;101742.81;;;7.35;100.00
72959;BME280;60008;50.826;6.896;2023-05-24T04:02:28;101735.03;;;7.33;100.00
72959;BME280;60008;50.826;6.896;2023-05-24T04:05:19;101731.16;;;7.26;100.00
72959;BME280;60008;50.826;6.896;2023-05-24T04:08:11;101733.50;;;7.53;100.00
72959;BME280;60008;50.826;6.896;2023-05-24T04:10:58;101738.69;;;7.54;100.00
72959;BME280;60008;50.826;6.896;2023-05-24T04:13:49;101735.63;;;7.37;100.00
72959;BME280;60008;50.826;6.896;2023-05-24T04:16:41;101737.91;;;7.30;100.00
72959;BME280;60008;50.826;6.896;2023-05-24T04:19:35;101750.38;;;7.39;100.00
72959;BME280;60008;50.826;6.896;2023-05-24T04:22:29;101756.59;;;7.27;100.00
72959;BME280;60008;50.826;6.896;2023-05-24T04:25:20;101767.44;;;7.11;100.00
72959;BME280;60008;50.826;6.896;2023-05-24T04:28:05;101764.31;;;7.17;100.00
72959;BME280;60008;50.826;6.896;2023-05-24T04:30:57;101764.59;;;7.26;100.00
72959;BME280;60008;50.826;6.896;2023-05-24T04:33:42;101771.06;;;7.22;100.00
72959;BME280;60008;50.826;6.896;2023-05-24T04:36:35;101777.28;;;7.20;100.00
72959;BME280;60008;50.826;6.896;2023-05-24T04:39:20;101773.16;;;7.40;100.00
72959;BME280;60008;50.826;6.896;2023-05-24T04:42:11;101774.97;;;7.40;100.00
72959;BME280;60008;50.826;6.896;2023-05-24T04:44:57;101782.72;;;7.65;100.00
72959;BME280;60008;50.826;6.896;2023-05-24T04:47:49;101781.63;;;7.56;100.00
72959;BME280;60008;50.826;6.896;2023-05-24T04:50:44;101775.44;;;7.79;100.00
72959;BME280;60008;50.826;6.896;2023-05-24T04:53:29;101777.38;;;7.89;100.00
72959;BME280;60008;50.826;6.896;2023-05-24T04:56:20;101779.28;;;7.87;100.00
72959;BME280;60008;50.826;6.896;2023-05-24T04:59:06;101782.19;;;7.95;100.00
72959;BME280;60008;50.826;6.896;2023-05-24T05:01:58;101781.22;;;7.96;100.00
72959;BME280;60008;50.826;6.896;2023-05-24T05:04:43;101785.06;;;8.03;100.00
72959;BME280;60008;50.826;6.896;2023-05-24T05:07:34;101789.03;;;8.19;100.00
72959;BME280;60008;50.826;6.896;2023-05-24T05:10:19;101801.31;;;8.43;100.00
72959;BME280;60008;50.826;6.896;2023-05-24T05:13:11;101796.75;;;8.45;100.00
72959;BME280;60008;50.826;6.896;2023-05-24T05:16:02;101798.31;;;8.58;100.00
72959;BME280;60008;50.826;6.896;2023-05-24T05:19:00;101791.06;;;8.82;100.00
72959;BME280;60008;50.826;6.896;2023-05-24T05:21:59;101798.13;;;8.93;100.00
72959;BME280;60008;50.826;6.896;2023-05-24T05:24:51;101789.41;;;9.13;100.00
72959;BME280;60008;50.826;6.896;2023-05-24T05:27:35;101791.75;;;9.27;100.00
72959;BME280;60008;50.826;6.896;2023-05-24T05:30:27;101789.63;;;9.21;100.00
72959;BME280;60008;50.826;6.896;2023-05-24T05:33:18;101794.19;;;9.19;100.00
72959;BME280;60008;50.826;6.896;2023-05-24T05:36:03;101789.47;;;9.34;100.00
72959;BME280;60008;50.826;6.896;2023-05-24T05:38:54;101789.06;;;9.38;100.00
72959;BME280;60008;50.826;6.896;2023-05-24T05:41:39;101791.84;;;9.37;100.00
72959;BME280;60008;50.826;6.896;2023-05-24T05:44:34;101796.13;;;9.49;100.00
72959;BME280;60008;50.826;6.896;2023-05-24T05:47:19;101792.97;;;9.55;100.00
72959;BME280;60008;50.826;6.896;2023-05-24T05:50:10;101788.06;;;9.50;100.00
72959;BME280;60008;50.826;6.896;2023-05-24T05:52:55;101784.31;;;9.53;100.00
72959;BME280;60008;50.826;6.896;2023-05-24T05:55:48;101788.97;;;9.61;100.00
72959;BME280;60008;50.826;6.896;2023-05-24T05:58:33;101792.78;;;9.88;100.00
72959;BME280;60008;50.826;6.896;2023-05-24T06:01:25;101784.75;;;9.99;100.00
72959;BME280;60008;50.826;6.896;2023-05-24T06:04:10;101781.72;;;10.04;100.00
72959;BME280;60008;50.826;6.896;2023-05-24T06:07:01;101790.88;;;10.21;100.00
72959;BME280;60008;50.826;6.896;2023-05-24T06:09:46;101787.97;;;10.03;100.00
72959;BME280;60008;50.826;6.896;2023-05-24T06:12:37;101791.19;;;10.06;100.00
72959;BME280;60008;50.826;6.896;2023-05-24T06:15:24;101781.84;;;10.23;100.00
72959;BME280;60008;50.826;6.896;2023-05-24T06:18:15;101782.25;;;10.19;100.00
72959;BME280;60008;50.826;6.896;2023-05-24T06:21:13;101788.69;;;10.26;100.00
72959;BME280;60008;50.826;6.896;2023-05-24T06:23:58;101794.47;;;10.40;100.00
72959;BME280;60008;50.826;6.896;2023-05-24T06:26:52;101786.91;;;10.36;100.00
72959;BME280;60008;50.826;6.896;2023-05-24T06:29:46;101780.72;;;10.65;100.00
72959;BME280;60008;50.826;6.896;2023-05-24T06:32:31;101754.94;;;10.67;100.00
72959;BME280;60008;50.826;6.896;2023-05-24T06:35:23;101762.75;;;10.69;100.00
72959;BME280;60008;50.826;6.896;2023-05-24T06:38:08;101757.31;;;10.80;100.00
72959;BME280;60008;50.826;6.896;2023-05-24T06:41:00;101752.44;;;10.85;100.00
72959;BME280;60008;50.826;6.896;2023-05-24T06:43:45;101750.09;;;10.92;100.00
72959;BME280;60008;50.826;6.896;2023-05-24T06:46:38;101746.41;;;10.73;100.00
72959;BME280;60008;50.826;6.896;2023-05-24T06:49:29;101745.19;;;10.87;100.00
72959;BME280;60008;50.826;6.896;2023-05-24T06:52:14;101748.81;;;10.96;100.00
72959;BME280;60008;50.826;6.896;2023-05-24T06:55:06;101751.47;;;11.34;100.00
72959;BME280;60008;50.826;6.896;2023-05-24T06:57:58;101760.56;;;11.51;100.00
72959;BME280;60008;50.826;6.896;2023-05-24T07:00:49;101773.69;;;11.43;100.00
72959;BME280;60008;50.826;6.896;2023-05-24T07:03:34;101771.44;;;10.90;100.00
72959;BME280;60008;50.826;6.896;2023-05-24T07:06:26;101773.94;;;11.01;100.00
72959;BME280;60008;50.826;6.896;2023-05-24T07:09:11;101782.50;;;11.24;100.00
72959;BME280;60008;50.826;6.896;2023-05-24T07:12:03;101783.19;;;11.45;100.00
72959;BME280;60008;50.826;6.896;2023-05-24T07:14:50;101778.56;;;11.28;100.00
72959;BME280;60008;50.826;6.896;2023-05-24T07:17:42;101778.56;;;11.28;100.00
72959;BME280;60008;50.826;6.896;2023-05-24T07:20:34;101782.34;;;11.45;100.00
72959;BME280;60008;50.826;6.896;2023-05-24T07:23:32;101772.84;;;12.27;100.00
72959;BME280;60008;50.826;6.896;2023-05-24T07:26:17;101774.66;;;12.53;100.00
72959;BME280;60008;50.826;6.896;2023-05-24T07:29:09;101781.66;;;12.18;100.00
72959;BME280;60008;50.826;6.896;2023-05-24T07:31:54;101778.34;;;12.43;100.00
72959;BME280;60008;50.826;6.896;2023-05-24T07:34:46;101775.03;;;12.68;100.00
72959;BME280;60008;50.826;6.896;2023-05-24T07:37:38;101773.47;;;12.93;100.00
72959;BME280;60008;50.826;6.896;2023-05-24T07:40:30;101775.88;;;15.26;100.00
72959;BME280;60008;50.826;6.896;2023-05-24T07:43:15;101788.72;;;15.30;100.00
72959;BME280;60008;50.826;6.896;2023-05-24T07:46:07;101784.94;;;12.93;100.00
72959;BME280;60008;50.826;6.896;2023-05-24T07:49:00;101782.28;;;12.93;100.00
72959;BME280;60008;50.826;6.896;2023-05-24T07:51:45;101787.75;;;11.91;100.00
72959;BME280;60008;50.826;6.896;2023-05-24T07:54:36;101789.97;;;12.15;100.00
72959;BME280;60008;50.826;6.896;2023-05-24T07:57:21;101795.16;;;12.43;100.00
72959;BME280;60008;50.826;6.896;2023-05-24T08:00:13;101788.88;;;12.35;100.00
72959;BME280;60008;50.826;6.896;2023-05-24T08:02:59;101794.66;;;12.21;100.00
72959;BME280;60008;50.826;6.896;2023-05-24T08:05:50;101789.22;;;12.22;100.00
72959;BME280;60008;50.826;6.896;2023-05-24T08:08:36;101795.13;;;12.07;100.00
72959;BME280;60008;50.826;6.896;2023-05-24T08:11:27;101781.28;;;12.13;100.00
72959;BME280;60008;50.826;6.896;2023-05-24T08:14:12;101784.66;;;12.42;100.00
72959;BME280;60008;50.826;6.896;2023-05-24T08:17:04;101770.53;;;14.60;100.00
72959;BME280;60008;50.826;6.896;2023-05-24T08:19:55;101764.88;;;18.22;88.47
72959;BME280;60008;50.826;6.896;2023-05-24T08:22:47;101760.31;;;19.66;73.10
72959;BME280;60008;50.826;6.896;2023-05-24T08:25:45;101767.69;;;19.36;67.92
72959;BME280;60008;50.826;6.896;2023-05-24T08:28:36;101774.56;;;17.56;71.98
72959;BME280;60008;50.826;6.896;2023-05-24T08:31:21;101768.50;;;18.58;69.65
72959;BME280;60008;50.826;6.896;2023-05-24T08:34:13;101772.38;;;17.60;70.99
72959;BME280;60008;50.826;6.896;2023-05-24T08:36:59;101766.97;;;17.22;83.40
72959;BME280;60008;50.826;6.896;2023-05-24T08:39:50;101777.38;;;14.62;98.35
72959;BME280;60008;50.826;6.896;2023-05-24T08:42:37;101780.59;;;14.06;100.00
72959;BME280;60008;50.826;6.896;2023-05-24T08:45:29;101788.25;;;13.58;100.00
72959;BME280;60008;50.826;6.896;2023-05-24T08:48:15;101796.47;;;13.11;100.00
72959;BME280;60008;50.826;6.896;2023-05-24T08:51:08;101790.00;;;13.32;100.00
72959;BME280;60008;50.826;6.896;2023-05-24T08:53:53;101784.72;;;13.75;100.00
72959;BME280;60008;50.826;6.896;2023-05-24T08:56:45;101782.97;;;13.92;100.00
72959;BME280;60008;50.826;6.896;2023-05-24T08:59:31;101780.16;;;14.45;100.00
72959;BME280;60008;50.826;6.896;2023-05-24T09:02:23;101781.94;;;13.85;100.00
72959;BME280;60008;50.826;6.896;2023-05-24T09:05:14;101781.19;;;13.13;100.00
72959;BME280;60008;50.826;6.896;2023-05-24T09:08:08;101778.50;;;14.18;100.00
72959;BME280;60008;50.826;6.896;2023-05-24T09:11:01;101783.91;;;13.04;100.00
72959;BME280;60008;50.826;6.896;2023-05-24T09:13:47;101769.94;;;14.06;100.00
72959;BME280;60008;50.826;6.896;2023-05-24T09:16:39;101761.97;;;14.14;100.00
72959;BME280;60008;50.826;6.896;2023-05-24T09:19:25;101759.44;;;14.80;100.00
72959;BME280;60008;50.826;6.896;2023-05-24T09:22:18;101773.13;;;14.44;100.00
72959;BME280;60008;50.826;6.896;2023-05-24T09:25:12;101772.66;;;13.89;100.00
72959;BME280;60008;50.826;6.896;2023-05-24T09:28:05;101771.13;;;13.86;100.00
72959;BME280;60008;50.826;6.896;2023-05-24T09:30:59;101766.81;;;13.67;100.00
72959;BME280;60008;50.826;6.896;2023-05-24T09:33:52;101772.16;;;14.45;100.00
72959;BME280;60008;50.826;6.896;2023-05-24T09:36:39;101763.88;;;14.56;100.00
72959;BME280;60008;50.826;6.896;2023-05-24T09:39:32;101757.69;;;14.29;100.00
72959;BME280;60008;50.826;6.896;2023-05-24T09:42:21;101758.72;;;14.70;100.00
72959;BME280;60008;50.826;6.896;2023-05-24T09:45:15;101753.06;;;14.73;100.00
72959;BME280;60008;50.826;6.896;2023-05-24T09:48:02;101762.31;;;15.19;100.00
72959;BME280;60008;50.826;6.896;2023-05-24T09:51:04;101761.75;;;14.67;100.00
72959;BME280;60008;50.826;6.896;2023-05-24T09:53:49;101763.22;;;14.62;100.00
72959;BME280;60008;50.826;6.896;2023-05-24T09:56:45;101763.22;;;14.62;100.00
72959;BME280;60008;50.826;6.896;2023-05-24T09:59:38;101757.22;;;14.00;100.00
72959;BME280;60008;50.826;6.896;2023-05-24T10:02:30;101763.50;;;13.65;100.00
72959;BME280;60008;50.826;6.896;2023-05-24T10:05:36;101753.94;;;14.32;100.00
72959;BME280;60008;50.826;6.896;2023-05-24T10:08:29;101748.22;;;13.50;100.00
72959;BME280;60008;50.826;6.896;2023-05-24T10:11:21;101750.72;;;14.28;100.00
72959;BME280;60008;50.826;6.896;2023-05-24T10:14:08;101753.63;;;15.01;100.00
72959;BME280;60008;50.826;6.896;2023-05-24T10:17:04;101751.19;;;15.56;100.00
72959;BME280;60008;50.826;6.896;2023-05-24T10:19:56;101738.28;;;16.39;96.55
72959;BME280;60008;50.826;6.896;2023-05-24T10:22:54;101733.78;;;16.31;98.22
72959;BME280;60008;50.826;6.896;2023-05-24T10:25:55;101733.44;;;15.87;99.51
72959;BME280;60008;50.826;6.896;2023-05-24T10:28:54;101739.31;;;15.75;100.00
72959;BME280;60008;50.826;6.896;2023-05-24T10:31:47;101737.72;;;16.13;96.18
72959;BME280;60008;50.826;6.896;2023-05-24T10:34:41;101737.84;;;17.79;84.55
72959;BME280;60008;50.826;6.896;2023-05-24T10:37:26;101731.50;;;17.12;88.12
72959;BME280;60008;50.826;6.896;2023-05-24T10:40:20;101729.50;;;17.14;90.06
72959;BME280;60008;50.826;6.896;2023-05-24T10:43:06;101748.81;;;16.40;91.79
72959;BME280;60008;50.826;6.896;2023-05-24T10:45:58;101747.91;;;16.09;95.24
72959;BME280;60008;50.826;6.896;2023-05-24T10:48:43;101744.31;;;15.29;100.00
72959;BME280;60008;50.826;6.896;2023-05-24T10:51:36;101745.16;;;15.38;100.00
72959;BME280;60008;50.826;6.896;2023-05-24T10:54:24;101746.59;;;14.84;100.00
72959;BME280;60008;50.826;6.896;2023-05-24T10:57:21;101748.88;;;14.71;100.00
72959;BME280;60008;50.826;6.896;2023-05-24T11:03:22;101740.81;;;14.47;100.00
72959;BME280;60008;50.826;6.896;2023-05-24T11:06:08;101732.66;;;14.14;100.00
72959;BME280;60008;50.826;6.896;2023-05-24T11:09:00;101730.28;;;14.37;100.00
72959;BME280;60008;50.826;6.896;2023-05-24T11:11:46;101727.19;;;14.66;100.00
72959;BME280;60008;50.826;6.896;2023-05-24T11:14:39;101738.81;;;15.23;100.00
72959;BME280;60008;50.826;6.896;2023-05-24T11:17:24;101727.81;;;15.50;100.00
72959;BME280;60008;50.826;6.896;2023-05-24T11:20:16;101728.00;;;15.57;100.00
72959;BME280;60008;50.826;6.896;2023-05-24T11:23:08;101732.28;;;15.33;100.00
72959;BME280;60008;50.826;6.896;2023-05-24T11:26:01;101734.81;;;15.03;100.00
72959;BME280;60008;50.826;6.896;2023-05-24T11:28:47;101733.13;;;15.18;100.00
72959;BME280;60008;50.826;6.896;2023-05-24T11:31:45;101725.63;;;15.13;100.00
72959;BME280;60008;50.826;6.896;2023-05-24T11:34:32;101724.44;;;14.92;100.00
72959;BME280;60008;50.826;6.896;2023-05-24T11:37:23;101717.75;;;15.04;100.00
72959;BME280;60008;50.826;6.896;2023-05-24T11:40:29;101712.59;;;15.42;100.00
72959;BME280;60008;50.826;6.896;2023-05-24T11:43:20;101709.94;;;15.26;100.00
72959;BME280;60008;50.826;6.896;2023-05-24T11:46:09;101700.84;;;15.92;100.00
72959;BME280;60008;50.826;6.896;2023-05-24T11:49:01;101709.22;;;15.81;100.00
72959;BME280;60008;50.826;6.896;2023-05-24T11:51:47;101696.34;;;16.31;100.00
72959;BME280;60008;50.826;6.896;2023-05-24T11:54:39;101686.50;;;17.31;99.16
72959;BME280;60008;50.826;6.896;2023-05-24T11:57:36;101691.44;;;16.04;100.00
72959;BME280;60008;50.826;6.896;2023-05-24T12:00:25;101692.56;;;16.18;99.04
72959;BME280;60008;50.826;6.896;2023-05-24T12:03:17;101689.16;;;15.85;100.00
72959;BME280;60008;50.826;6.896;2023-05-24T12:06:02;101699.91;;;14.96;100.00
72959;BME280;60008;50.826;6.896;2023-05-24T12:08:54;101695.88;;;15.00;100.00
72959;BME280;60008;50.826;6.896;2023-05-24T12:11:40;101696.53;;;14.62;100.00
72959;BME280;60008;50.826;6.896;2023-05-24T12:14:33;101696.84;;;14.59;100.00
72959;BME280;60008;50.826;6.896;2023-05-24T12:17:26;101698.13;;;14.47;100.00
72959;BME280;60008;50.826;6.896;2023-05-24T12:20:28;101709.34;;;14.24;100.00
72959;BME280;60008;50.826;6.896;2023-05-24T12:23:28;101707.47;;;14.43;100.00
72959;BME280;60008;50.826;6.896;2023-05-24T12:26:22;101698.69;;;14.24;100.00
72959;BME280;60008;50.826;6.896;2023-05-24T12:29:15;101701.97;;;14.44;100.00
72959;BME280;60008;50.826;6.896;2023-05-24T12:32:01;101701.28;;;14.42;100.00
72959;BME280;60008;50.826;6.896;2023-05-24T12:34:52;101699.84;;;14.64;100.00
72959;BME280;60008;50.826;6.896;2023-05-24T12:37:37;101704.97;;;14.49;100.00
72959;BME280;60008;50.826;6.896;2023-05-24T12:40:31;101701.41;;;14.32;100.00
72959;BME280;60008;50.826;6.896;2023-05-24T12:43:18;101700.09;;;14.37;100.00
72959;BME280;60008;50.826;6.896;2023-05-24T12:46:10;101709.31;;;14.16;100.00
72959;BME280;60008;50.826;6.896;2023-05-24T12:48:55;101710.47;;;14.14;100.00
72959;BME280;60008;50.826;6.896;2023-05-24T12:51:46;101703.63;;;14.37;100.00
72959;BME280;60008;50.826;6.896;2023-05-24T12:54:33;101699.16;;;14.46;100.00
72959;BME280;60008;50.826;6.896;2023-05-24T12:57:24;101709.72;;;14.87;100.00
72959;BME280;60008;50.826;6.896;2023-05-24T13:00:09;101708.75;;;14.88;100.00
72959;BME280;60008;50.826;6.896;2023-05-24T13:03:01;101707.41;;;15.01;100.00
72959;BME280;60008;50.826;6.896;2023-05-24T13:05:53;101704.91;;;14.83;100.00
72959;BME280;60008;50.826;6.896;2023-05-24T13:08:38;101702.44;;;15.22;100.00
72959;BME280;60008;50.826;6.896;2023-05-24T13:11:30;101696.25;;;14.89;100.00
72959;BME280;60008;50.826;6.896;2023-05-24T13:14:16;101686.34;;;15.86;100.00
72959;BME280;60008;50.826;6.896;2023-05-24T13:17:08;101698.75;;;15.23;100.00
72959;BME280;60008;50.826;6.896;2023-05-24T13:19:54;101692.84;;;14.63;100.00
72959;BME280;60008;50.826;6.896;2023-05-24T13:22:51;101692.22;;;15.58;100.00
72959;BME280;60008;50.826;6.896;2023-05-24T13:25:43;101685.19;;;15.73;99.84
72959;BME280;60008;50.826;6.896;2023-05-24T13:28:35;101696.75;;;15.65;98.23
72959;BME280;60008;50.826;6.896;2023-05-24T13:31:21;101699.78;;;15.46;93.78
72959;BME280;60008;50.826;6.896;2023-05-24T13:34:12;101685.84;;;15.75;100.00
72959;BME280;60008;50.826;6.896;2023-05-24T13:36:57;101682.84;;;15.70;99.16
72959;BME280;60008;50.826;6.896;2023-05-24T13:39:50;101691.03;;;15.44;100.00
72959;BME280;60008;50.826;6.896;2023-05-24T13:42:35;101678.03;;;15.25;97.27
72959;BME280;60008;50.826;6.896;2023-05-24T13:45:26;101681.84;;;14.66;100.00
72959;BME280;60008;50.826;6.896;2023-05-24T13:48:13;101677.69;;;14.71;100.00
72959;BME280;60008;50.826;6.896;2023-05-24T13:51:05;101679.88;;;15.00;100.00
72959;BME280;60008;50.826;6.896;2023-05-24T13:53:50;101680.03;;;14.74;100.00
72959;BME280;60008;50.826;6.896;2023-05-24T13:56:41;101671.44;;;14.39;100.00
72959;BME280;60008;50.826;6.896;2023-05-24T13:59:28;101670.84;;;14.27;100.00
72959;BME280;60008;50.826;6.896;2023-05-24T14:02:20;101676.00;;;14.78;100.00
72959;BME280;60008;50.826;6.896;2023-05-24T14:05:06;101675.81;;;14.56;100.00
72959;BME280;60008;50.826;6.896;2023-05-24T14:08:12;101678.03;;;14.76;100.00
72959;BME280;60008;50.826;6.896;2023-05-24T14:11:04;101679.03;;;14.67;100.00
72959;BME280;60008;50.826;6.896;2023-05-24T14:13:49;101678.19;;;14.75;100.00
72959;BME280;60008;50.826;6.896;2023-05-24T14:16:44;101682.00;;;14.56;100.00
72959;BME280;60008;50.826;6.896;2023-05-24T14:19:29;101677.16;;;14.60;100.00
72959;BME280;60008;50.826;6.896;2023-05-24T14:22:33;101671.13;;;14.42;100.00
72959;BME280;60008;50.826;6.896;2023-05-24T14:25:19;101681.59;;;14.43;100.00
72959;BME280;60008;50.826;6.896;2023-05-24T14:28:10;101681.09;;;14.32;100.00
72959;BME280;60008;50.826;6.896;2023-05-24T14:30:56;101683.78;;;14.40;100.00
72959;BME280;60008;50.826;6.896;2023-05-24T14:33:47;101681.19;;;14.64;100.00
72959;BME280;60008;50.826;6.896;2023-05-24T14:36:32;101683.84;;;14.56;100.00
72959;BME280;60008;50.826;6.896;2023-05-24T14:39:23;101677.38;;;14.82;100.00
72959;BME280;60008;50.826;6.896;2023-05-24T14:42:08;101675.22;;;15.10;100.00
72959;BME280;60008;50.826;6.896;2023-05-24T14:44:59;101674.03;;;15.21;99.17
72959;BME280;60008;50.826;6.896;2023-05-24T14:47:51;101674.72;;;15.15;97.93
72959;BME280;60008;50.826;6.896;2023-05-24T14:50:43;101664.34;;;15.04;100.00
72959;BME280;60008;50.826;6.896;2023-05-24T14:53:28;101656.16;;;15.45;97.44
72959;BME280;60008;50.826;6.896;2023-05-24T14:56:19;101666.19;;;15.35;99.30